• Join FlightAware (Why Join?)
  • Login
  • US Flag 
06:28AM EDT


 

Airport Tracker/Info


-or-


 

Live Flight TrackerFlight Track Log ✈ N700QA ✈ 04-Apr-2014 ✈ KFLL - TAPA / ANU

Flight Track Log - Related Links

Times and Time Zones

All times are in EDT time to prevent confusion due to time zone crossing. See the N700QA flight status page for this flight to view local times or setup timezone preferences in your user account.

Time Position Orientation Groundspeed Altitude Reporting Facility
EDT Latitude Longitude Course Direction KTS MPH feet Rate Location/Type
05:08AM 26.0800 -80.0997 81° East 215 247 2,000  Level Miami Center
05:09AM 26.0853 -80.0514 83° East 210 242 4,200 2,640 Climbing Miami Center
05:10AM 26.0803 -79.9819 95° East 229 264 6,800 2,280 Climbing Miami Center
05:11AM 26.0633 -79.8981 103° East 249 287 9,100 2,040 Climbing Miami Center
05:12AM 26.0469 -79.7844 99° East 303 349 11,900 2,160 Climbing Miami Center
05:13AM 26.0317 -79.7031 102° East 294 338 14,300 1,920 Climbing Miami Center
05:14AM 26.0186 -79.6219 100° East 274 315 15,800 1,320 Climbing Miami Center
05:15AM 26.0033 -79.5431 102° East 274 315 17,000 1,140 Climbing Miami Center
05:16AM 25.9825 -79.4361 98° East 301 346 18,200 1,260 Climbing Miami Center
05:17AM 25.9611 -79.3456 105° East 324 373 19,500 1,380 Climbing Miami Center
05:18AM 25.9083 -79.2453 120° Southeast 334 384 21,000 1,680 Climbing Miami Center
05:19AM 25.8597 -79.1564 121° Southeast 339 390 23,000 1,620 Climbing Miami Center
05:20AM 25.8150 -79.0678 119° Southeast 339 390 24,300 960 Climbing Miami Center
05:21AM 25.7725 -78.9747 117° Southeast 339 390 25,000 900 Climbing Miami Center
05:22AM 25.7175 -78.8747 121° Southeast 353 406 26,200 1,320 Climbing Miami Center
05:23AM 25.6728 -78.7817 118° Southeast 353 406 27,700 1,140 Climbing Miami Center
05:24AM 25.6217 -78.6864 121° Southeast 353 406 28,500 600 Climbing Miami Center
05:25AM 25.5708 -78.5842 119° Southeast 365 420 28,900 480 Climbing Miami Center
05:26AM 25.5236 -78.4961 121° Southeast 370 426 29,500 660 Climbing Miami Center
05:27AM 25.4683 -78.3894 120° Southeast 382 440 30,200 600 Climbing Miami Center
05:28AM 25.4131 -78.2806 119° Southeast 389 448 30,700 900 Climbing Miami Center
05:29AM 25.3575 -78.1742 120° Southeast 394 453 32,100 1,140 Climbing Miami Center
05:30AM 25.3061 -78.0747 120° Southeast 389 448 33,000 420 Climbing Miami Center
05:31AM 25.2506 -77.9708 121° Southeast 389 448 33,000  Level Miami Center
05:32AM 25.1928 -77.8578 119° Southeast 399 459 33,100  Climbing Miami Center
05:33AM 25.1331 -77.7450 120° Southeast 411 473 33,100 240 Level Miami Center
05:34AM 25.0708 -77.6297 121° Southeast 427 491 33,600 840 Climbing Miami Center
05:35AM 25.0067 -77.4964 118° Southeast 427 491 34,800 660 Climbing Miami Center
05:36AM 24.9444 -77.3883 122° Southeast 427 491 35,000 60 Climbing Miami Center
05:37AM 24.8822 -77.2711 120° Southeast 427 491 35,000  Level Miami Center
05:38AM 24.8219 -77.1564 120° Southeast 427 491 35,100  Climbing Miami Center
05:39AM 24.7572 -77.0372 121° Southeast 437 503 35,100 180 Level Miami Center
05:40AM 24.6947 -76.9183 120° Southeast 447 514 35,500 780 Climbing Miami Center
05:41AM 24.6319 -76.8039 121° Southeast 447 514 36,800 660 Climbing Miami Center
05:42AM 24.5733 -76.6897 119° Southeast 437 503 36,900 60 Climbing Miami Center
05:43AM 24.5125 -76.5803 121° Southeast 432 497 37,000  Climbing Miami Center
05:44AM 24.4494 -76.4639 121° Southeast 426 490 37,000  Level Miami Center
05:45AM 24.3864 -76.3500 121° Southeast 431 496 37,000  Level Miami Center
05:46AM 24.3256 -76.2294 119° Southeast 436 502 37,000  Level Miami Center
05:47AM 24.2581 -76.1136 123° Southeast 446 513 37,000  Level Miami Center
05:48AM 24.1947 -75.9931 120° Southeast 446 513 37,100  Climbing Miami Center
05:49AM 24.1292 -75.8728 121° Southeast 451 519 37,000  Descending Miami Center
05:50AM 24.0633 -75.7506 121° Southeast 451 519 37,100  Climbing Miami Center
05:51AM 23.9978 -75.6283 120° Southeast 456 525 37,100  Level Miami Center
05:52AM 23.9361 -75.5219 122° Southeast 456 525 37,100  Level Miami Center
05:53AM 23.8661 -75.3978 122° Southeast 463 533 37,100  Level Miami Center
05:54AM 23.8000 -75.2758 121° Southeast 463 533 37,100  Level Miami Center
05:55AM 23.7319 -75.1542 121° Southeast 463 533 37,100  Level Miami Center
05:56AM 23.6633 -75.0281 121° Southeast 463 533 37,100  Level Miami Center
05:57AM 23.5950 -74.9067 122° Southeast 468 539 37,100  Level Miami Center
05:58AM 23.5267 -74.7853 122° Southeast 468 539 37,100  Level Miami Center
05:59AM 23.4578 -74.6597 121° Southeast 468 539 37,100  Level Miami Center
06:00AM 23.3872 -74.5386 122° Southeast 468 539 37,100  Level Miami Center
06:01AM 23.3225 -74.4133 119° Southeast 468 539 37,100  Level Miami Center
06:02AM 23.2514 -74.2925 123° Southeast 468 539 37,100  Level Miami Center
06:03AM 23.1783 -74.1697 123° Southeast 474 545 37,100  Level Miami Center
06:04AM 23.1114 -74.0469 121° Southeast 474 545 37,100  Level Miami Center
06:05AM 23.0422 -73.9242 121° Southeast 474 545 37,100  Level Miami Center
06:06AM 22.9728 -73.8017 122° Southeast 474 545 37,100  Level Miami Center
06:07AM 22.8992 -73.6794 123° Southeast 474 545 37,100  Level Miami Center
06:08AM 22.8319 -73.5550 120° Southeast 474 545 37,100  Level Miami Center
06:09AM 22.7517 -73.4219 123° Southeast 474 545 37,100  Level Miami Center
06:10AM 22.6819 -73.3000 122° Southeast 474 545 37,100  Level Miami Center
06:11AM 22.6122 -73.1758 121° Southeast 474 545 37,100  Level Miami Center
06:12AM 22.5400 -73.0497 122° Southeast 480 552 37,100  Level Miami Center
06:13AM 22.4703 -72.9283 122° Southeast 480 552 37,100  Level Miami Center
06:14AM 22.4003 -72.8069 122° Southeast 480 552 37,100  Level Miami Center
06:15AM 22.3300 -72.6836 122° Southeast 480 552 37,100  Level Miami Center
06:16AM 22.2578 -72.5625 123° Southeast 480 552 37,100  Level Miami Center
06:17AM 22.1875 -72.4414 122° Southeast 485 558 37,100  Level Miami Center
06:18AM 22.1172 -72.3206 122° Southeast 480 552 37,100  Level Miami Center
06:19AM 22.0467 -72.2022 123° Southeast 474 545 37,100  Level Miami Center
06:20AM 21.9761 -72.0817 122° Southeast 474 545 37,100  Level Miami Center
06:21AM 21.9056 -71.9611 122° Southeast 474 545 37,100  Level Miami Center
06:22AM 21.8350 -71.8431 123° Southeast 474 545 37,100  Level Miami Center
06:23AM 21.7664 -71.7250 122° Southeast 469 540 37,100  Level Miami Center
06:24AM 21.6978 -71.6094 123° Southeast 469 540 37,100  Level Miami Center
06:25AM 21.6292 -71.4939 123° Southeast 469 540 37,100  Level Miami Center
06:26AM 21.5603 -71.3783 123° Southeast 463 533 37,100  Level Miami Center
06:27AM 21.4914 -71.2631 123° Southeast 463 533 37,100  Level Miami Center
06:28AM 21.4294 -71.1608 123° Southeast 463 533 37,100 -60 Level Miami Center
06:29AM 21.3717 -71.0678 124° Southeast 463 533 37,000  Descending Miami Center
06:30AM 21.2933 -70.9308 122° Southeast 431 496 37,100  Climbing Miami Center
06:31AM 21.2264 -70.8181 122° Southeast 441 507 37,000  Descending Miami Center
06:32AM 21.1572 -70.7033 123° Southeast 446 513 37,100  Climbing Miami Center
06:33AM 21.0881 -70.5889 123° Southeast 451 519 37,000 -60 Descending Miami Center
06:34AM 21.0231 -70.4786 122° Southeast 451 519 37,000  Level Miami Center
06:35AM 20.9536 -70.3642 123° Southeast 451 519 37,000  Level Miami Center
06:36AM 20.8864 -70.2522 123° Southeast 451 519 37,000  Level Miami Center
06:37AM 20.8169 -70.1403 124° Southeast 451 519 37,000  Level Miami Center
06:38AM 20.7517 -70.0283 122° Southeast 451 519 37,000  Level Miami Center
06:39AM 20.6819 -69.9144 123° Southeast 451 519 37,000  Level Miami Center
06:40AM 20.6122 -69.8031 124° Southeast 451 519 37,000  Level Miami Center
06:41AM 20.5447 -69.6892 122° Southeast 451 519 37,000  Level Miami Center
06:42AM 20.4769 -69.5778 123° Southeast 451 519 37,000  Level Miami Center
06:43AM 20.4094 -69.4689 123° Southeast 451 519 37,000  Level Miami Center
06:44AM 20.3394 -69.3578 124° Southeast 451 519 37,100  Climbing Miami Center
06:45AM 20.2736 -69.2444 122° Southeast 451 519 37,000  Descending Miami Center
06:46AM 20.2017 -69.1358 125° Southeast 451 519 37,100  Climbing Miami Center
06:47AM 20.1358 -69.0272 123° Southeast 451 519 37,000 -60 Descending Miami Center
06:48AM 20.0658 -68.9164 124° Southeast 451 519 37,000  Level Miami Center
06:49AM 20.0097 -68.7964 116° Southeast 451 519 37,000  Level Miami Center
06:50AM 19.9575 -68.6739 114° Southeast 451 519 37,000  Level Miami Center
06:51AM 19.9053 -68.5539 115° Southeast 457 526 37,000  Level Miami Center
06:52AM 19.8531 -68.4317 114° Southeast 457 526 37,000  Level Miami Center
06:53AM 19.8000 -68.3500 125° Southeast 460 529 37,000  Level San Juan Center
06:54AM 19.7500 -68.2333 114° Southeast 450 518 37,000  Level San Juan Center
06:55AM 19.7000 -68.1000 112° Southeast 460 529 37,000  Level San Juan Center
06:56AM 19.6500 -67.9833 114° Southeast 460 529 37,000  Level San Juan Center
06:57AM 19.5833 -67.8667 121° Southeast 470 541 37,000  Level San Juan Center
06:58AM 19.5333 -67.7333 112° Southeast 470 541 37,000  Level San Juan Center
06:59AM 19.4833 -67.6167 114° Southeast 470 541 37,000  Level San Juan Center
07:00AM 19.4167 -67.4833 118° Southeast 470 541 37,000  Level San Juan Center
07:01AM 19.3833 -67.3500 105° East 470 541 37,000  Level San Juan Center
07:02AM 19.3500 -67.2167 105° East 480 552 37,000  Level San Juan Center
07:03AM 19.3167 -67.0667 103° East 480 552 37,000  Level San Juan Center
07:04AM 19.2833 -66.9333 105° East 480 552 37,000  Level San Juan Center
07:05AM 19.2333 -66.8000 112° Southeast 480 552 37,000  Level San Juan Center
07:06AM 19.1667 -66.6833 121° Southeast 480 552 37,000  Level San Juan Center
07:07AM 19.1000 -66.5667 121° Southeast 470 541 37,000  Level San Juan Center
07:08AM 19.0500 -66.4333 112° Southeast 480 552 37,000  Level San Juan Center
07:09AM 18.9833 -66.3167 121° Southeast 480 552 37,100  Climbing San Juan Center
07:10AM 18.9167 -66.1833 118° Southeast 480 552 37,100  Level San Juan Center
07:11AM 18.8667 -66.0667 114° Southeast 480 552 37,100  Level San Juan Center
07:12AM 18.8000 -65.9333 118° Southeast 480 552 37,100  Level San Juan Center
07:13AM 18.7500 -65.8167 114° Southeast 480 552 37,100  Level San Juan Center
07:14AM 18.6833 -65.6833 118° Southeast 470 541 37,100  Level San Juan Center
07:15AM 18.6167 -65.5500 118° Southeast 470 541 37,100  Level San Juan Center
07:16AM 18.5667 -65.4333 114° Southeast 470 541 37,100  Level San Juan Center
07:17AM 18.5000 -65.3000 118° Southeast 470 541 37,100  Level San Juan Center
07:18AM 18.4333 -65.1667 118° Southeast 470 541 37,100  Level San Juan Center
07:19AM 18.3833 -65.0667 118° Southeast 480 552 37,100  Level San Juan Center
07:20AM 18.3167 -64.9333 118° Southeast 480 552 37,100  Level San Juan Center
07:21AM 18.2500 -64.8000 118° Southeast 490 564 37,100  Level San Juan Center
07:22AM 18.1833 -64.6667 118° Southeast 470 541 37,100  Level San Juan Center
07:23AM 18.1333 -64.5500 114° Southeast 470 541 37,100  Level San Juan Center
07:24AM 18.0667 -64.4333 121° Southeast 470 541 37,100  Level San Juan Center
07:25AM 18.0000 -64.3000 118° Southeast 470 541 37,100  Level San Juan Center
07:26AM 17.9333 -64.1833 121° Southeast 480 552 37,100 -120 Level San Juan Center
07:27AM 17.8833 -64.0500 111° Southeast 470 541 36,900 -900 Descending San Juan Center
07:28AM 17.8167 -63.9333 121° Southeast 480 552 35,300 -1,800 Descending San Juan Center
07:29AM 17.7500 -63.8000 118° Southeast 490 564 33,300 -1,800 Descending San Juan Center
07:30AM 17.6833 -63.6833 121° Southeast 490 564 31,700 -1,800 Descending San Juan Center
07:31AM 17.6333 -63.5500 111° Southeast 480 552 29,700 -2,040 Descending San Juan Center
07:32AM 17.5667 -63.4333 121° Southeast 470 541 27,700 -2,340 Descending San Juan Center
07:33AM 17.5000 -63.3167 121° Southeast 460 529 25,000 -2,460 Descending San Juan Center
07:34AM 17.4500 -63.2000 114° Southeast 420 483 22,800 -2,220 Descending San Juan Center
07:35AM 17.4000 -63.1000 118° Southeast 380 437 20,600 -1,920 Descending San Juan Center
07:36AM 17.3500 -63.0000 118° Southeast 370 426 19,000 -1,140 Descending San Juan Center
07:37AM 17.3167 -62.9000 109° East 360 414 18,400 -600 Descending San Juan Center
07:39AM 17.2985 -62.7167 96° East  Level FlightAware Approximate
07:46AM 17.1357 -61.8596 104° East  Level FlightAware Approximate
07:47AM 17.1367 -61.7927 136° Southeast  Level Estimated
07:48AM 17.1367 -61.7927 136° Southeast  Level Estimated
07:49AM 17.1367 -61.7927 136° Southeast  Level Estimated
07:50AM 17.1367 -61.7927 136° Southeast  Level Estimated
07:51AM 17.1367 -61.7927 136° Southeast  Level Estimated
07:52AM 17.1367 -61.7927 136° Southeast  Level Estimated
07:53AM 17.1367 -61.7927 136° Southeast  Level Estimated
07:54AM 17.1367 -61.7927 136° Southeast  Level Estimated
07:55AM 17.1367 -61.7927 136° Southeast  Level Estimated
07:56AM 17.1367 -61.7927 136° Southeast  Level Estimated
07:57AM 17.1367 -61.7927 136° Southeast  Level Estimated
07:58AM 17.1367 -61.7927 136° Southeast  Level Estimated
07:59AM 17.1367 -61.7927 136° Southeast  Level Estimated
08:00AM 17.1367 -61.7927 136° Southeast  Level Estimated
08:01AM 17.1367 -61.7927 136° Southeast  Level Estimated
08:02AM 17.1367 -61.7927 136° Southeast  Level Estimated
08:03AM 17.1367 -61.7927 136° Southeast  Level Estimated